Time;durP1;ratioP1;P1;durP2;ratioP2;P2;SDS_P1;SDS_P2;PMS_P1;PMS_P2;Temp;Humidity;BMP_temperature;BMP_pressure;BME280_temperature;BME280_humidity;BME280_pressure;Samples;Min_cycle;Max_cycle;Signal;HPM_P1;HPM_P2
2022/10/30 00:00:23;;;;;;;3.17;1.63;;;14.00;99.90;;;;;;4885495;29;20048;-82
2022/10/30 00:02:49;;;;;;;2.53;1.52;;;13.90;99.90;;;;;;4883971;29;20111;-82
2022/10/30 00:05:15;;;;;;;2.10;1.48;;;13.90;99.90;;;;;;4902133;29;20075;-82
2022/10/30 00:07:41;;;;;;;2.47;1.65;;;13.90;99.90;;;;;;4899357;29;20408;-82
2022/10/30 00:10:08;;;;;;;2.85;1.60;;;13.90;99.90;;;;;;4896679;29;20127;-82
2022/10/30 00:12:33;;;;;;;2.42;1.60;;;14.20;99.90;;;;;;4885144;29;20480;-82
2022/10/30 00:14:59;;;;;;;1.40;1.20;;;14.20;99.90;;;;;;4898067;29;20200;-82
2022/10/30 00:17:25;;;;;;;1.75;1.20;;;14.20;99.90;;;;;;4897137;29;20103;-82
2022/10/30 00:19:51;;;;;;;2.13;1.38;;;13.80;99.90;;;;;;4895572;29;20032;-82
2022/10/30 00:22:17;;;;;;;2.00;1.60;;;13.80;99.90;;;;;;4898513;29;20131;-81
2022/10/30 00:24:42;;;;;;;2.88;1.42;;;13.80;99.90;;;;;;4883966;29;20063;-82
2022/10/30 00:27:08;;;;;;;3.38;1.50;;;14.10;99.90;;;;;;4893843;29;20056;-82
2022/10/30 00:29:34;;;;;;;1.58;1.20;;;14.20;99.90;;;;;;4893000;29;20053;-82
2022/10/30 00:31:59;;;;;;;2.00;1.50;;;13.70;99.90;;;;;;4906721;29;20036;-82
2022/10/30 00:34:25;;;;;;;1.50;1.13;;;14.00;99.90;;;;;;4894498;29;20181;-81
2022/10/30 00:36:51;;;;;;;2.47;1.60;;;14.00;99.90;;;;;;4878619;29;20472;-82
2022/10/30 00:39:16;;;;;;;2.40;1.50;;;14.10;99.90;;;;;;4894197;29;20108;-82
2022/10/30 00:41:42;;;;;;;2.65;1.75;;;14.00;99.90;;;;;;4893378;29;20057;-83
2022/10/30 00:44:30;;;;;;;1.38;1.20;;;14.00;99.90;;;;;;4891509;29;20147;-82
2022/10/30 00:46:57;;;;;;;2.88;1.70;;;13.80;99.90;;;;;;4879718;29;20125;-82
2022/10/30 00:49:23;;;;;;;1.95;1.40;;;13.80;99.90;;;;;;4878433;29;20517;-82
2022/10/30 00:51:51;;;;;;;;;;;13.90;99.90;;;;;;4895717;29;20583;-82
2022/10/30 00:54:19;;;;;;;1.75;1.42;;;13.50;99.90;;;;;;4894605;29;20072;-81
2022/10/30 00:56:46;;;;;;;1.75;1.13;;;13.80;99.90;;;;;;4881687;29;20450;-83
2022/10/30 00:59:17;;;;;;;1.65;1.40;;;13.40;99.90;;;;;;4894089;29;20572;-82
2022/10/30 01:01:45;;;;;;;2.00;1.25;;;13.80;99.90;;;;;;4899475;29;20060;-75
2022/10/30 01:04:12;;;;;;;2.22;1.60;;;13.60;99.90;;;;;;4891968;29;20044;-74
2022/10/30 01:06:43;;;;;;;2.28;1.40;;;13.80;99.90;;;;;;4893651;29;20127;-74
2022/10/30 01:09:09;;;;;;;2.30;1.40;;;13.70;99.90;;;;;;4889548;29;20536;-74
2022/10/30 01:11:35;;;;;;;1.52;1.20;;;13.40;99.90;;;;;;4875517;29;20150;-74
2022/10/30 01:14:04;;;;;;;1.88;1.30;;;13.40;99.90;;;;;;4892920;29;20136;-74
2022/10/30 01:17:01;;;;;;;1.88;1.27;;;13.40;99.90;;;;;;4895098;29;20049;-74
2022/10/30 01:19:51;;;;;;;2.75;1.80;;;13.70;99.90;;;;;;4893457;29;20506;-74
2022/10/30 01:22:34;;;;;;;1.65;1.35;;;13.80;99.90;;;;;;4893078;29;20052;-74
2022/10/30 01:25:25;;;;;;;2.20;1.50;;;13.30;99.90;;;;;;4893042;29;20555;-74
2022/10/30 01:28:14;;;;;;;2.63;1.48;;;13.30;99.90;;;;;;4878916;29;20206;-74
2022/10/30 01:30:45;;;;;;;1.98;1.35;;;13.30;99.90;;;;;;4856382;29;20056;-74
2022/10/30 01:33:26;;;;;;;1.52;0.90;;;13.70;99.90;;;;;;4893208;29;20037;-74
2022/10/30 01:36:16;;;;;;;1.55;1.20;;;13.30;99.90;;;;;;4893254;29;20124;-74
2022/10/30 01:38:50;;;;;;;1.80;1.45;;;13.50;99.90;;;;;;4894539;29;20370;-74
2022/10/30 01:41:16;;;;;;;1.63;1.10;;;13.30;99.90;;;;;;4892427;29;20116;-73
2022/10/30 01:43:45;;;;;;;2.03;1.52;;;13.50;99.90;;;;;;4887448;29;20060;-74
2022/10/30 01:46:33;;;;;;;2.85;1.65;;;13.70;99.90;;;;;;4893205;29;20049;-74
2022/10/30 01:49:29;;;;;;;2.05;1.70;;;13.50;99.90;;;;;;4894079;29;20045;-74
2022/10/30 01:52:19;;;;;;;2.75;1.58;;;13.30;99.90;;;;;;4887028;29;20068;-74
2022/10/30 01:55:08;;;;;;;1.77;1.45;;;13.30;99.90;;;;;;4876485;29;20054;-74
2022/10/30 01:57:55;;;;;;;1.83;1.45;;;13.30;99.90;;;;;;4883148;29;20084;-74
2022/10/30 02:00:21;;;;;;;2.20;1.42;;;13.60;99.90;;;;;;4882815;29;20051;-73
2022/10/30 02:02:48;;;;;;;;;;;13.50;99.90;;;;;;4903282;29;20051;-74
2022/10/30 02:05:24;;;;;;;4.13;1.88;;;13.60;99.90;;;;;;4883595;29;20344;-74
2022/10/30 02:07:49;;;;;;;2.37;1.73;;;13.50;99.90;;;;;;4898246;29;20395;-74
2022/10/30 02:10:15;;;;;;;1.95;1.45;;;13.60;99.90;;;;;;4896808;29;20337;-74
2022/10/30 02:12:41;;;;;;;1.63;1.27;;;13.60;99.90;;;;;;4880849;29;20124;-74
2022/10/30 02:15:07;;;;;;;2.05;1.33;;;13.60;99.90;;;;;;4896971;29;20044;-75
2022/10/30 02:17:33;;;;;;;3.08;1.50;;;13.60;99.90;;;;;;4895216;29;20057;-74
2022/10/30 02:19:59;;;;;;;2.42;1.30;;;13.60;99.90;;;;;;4896880;29;20044;-74
2022/10/30 02:22:25;;;;;;;2.60;1.63;;;13.20;99.90;;;;;;4912101;29;20060;-74
2022/10/30 02:24:50;;;;;;;3.03;1.85;;;13.60;99.90;;;;;;4897414;29;20050;-75
2022/10/30 02:27:16;;;;;;;2.70;2.13;;;13.60;99.90;;;;;;4895954;29;20505;-73
2022/10/30 02:29:42;;;;;;;2.53;1.80;;;13.40;99.90;;;;;;4896211;29;20049;-74
2022/10/30 02:32:07;;;;;;;2.33;1.70;;;13.50;99.90;;;;;;4865783;29;20105;-74
2022/10/30 02:34:33;;;;;;;3.47;1.60;;;13.10;99.90;;;;;;4878378;29;20048;-73
2022/10/30 02:36:58;;;;;;;2.88;1.60;;;13.10;99.90;;;;;;4912104;29;20090;-73
2022/10/30 02:39:24;;;;;;;2.70;1.70;;;13.30;99.90;;;;;;4880409;29;20495;-74
2022/10/30 02:41:50;;;;;;;1.63;1.38;;;13.00;99.90;;;;;;4888078;29;20490;-74
2022/10/30 02:44:15;;;;;;;1.80;1.30;;;13.00;99.90;;;;;;4892368;29;20041;-74
2022/10/30 02:46:41;;;;;;;1.40;1.17;;;13.40;99.90;;;;;;4895870;29;20044;-74
2022/10/30 02:49:07;;;;;;;2.53;1.40;;;13.00;99.90;;;;;;4896064;29;20056;-73
2022/10/30 02:51:33;;;;;;;2.22;1.40;;;13.40;99.90;;;;;;4895860;29;20056;-74
2022/10/30 02:53:59;;;;;;;1.63;1.20;;;13.30;99.90;;;;;;4911740;29;20071;-74
2022/10/30 02:56:25;;;;;;;1.67;1.30;;;13.10;99.90;;;;;;4897189;29;20135;-74
2022/10/30 02:58:51;;;;;;;1.48;1.10;;;13.00;99.90;;;;;;4900212;29;20583;-74
2022/10/30 03:01:18;;;;;;;1.45;1.17;;;13.30;99.90;;;;;;4890819;29;20135;-74
2022/10/30 03:03:45;;;;;;;2.50;1.27;;;13.20;99.90;;;;;;4895909;29;20060;-74
2022/10/30 03:06:14;;;;;;;1.85;1.33;;;13.30;99.90;;;;;;4896849;29;20060;-74
2022/10/30 03:08:41;;;;;;;2.08;1.45;;;13.30;99.90;;;;;;4895980;29;20041;-74
2022/10/30 03:11:15;;;;;;;2.28;1.50;;;12.90;99.90;;;;;;4889901;29;20473;-75
2022/10/30 03:13:42;;;;;;;2.72;1.58;;;12.80;99.90;;;;;;4911742;29;20063;-74
2022/10/30 03:16:14;;;;;;;1.52;1.30;;;12.90;99.90;;;;;;4895636;29;20048;-74
2022/10/30 03:18:40;;;;;;;2.75;1.70;;;13.10;99.90;;;;;;4895491;29;20496;-74
2022/10/30 03:21:08;;;;;;;3.28;1.90;;;13.00;99.90;;;;;;4895802;29;20056;-75
2022/10/30 03:23:34;;;;;;;3.50;1.63;;;13.10;99.90;;;;;;4894796;29;20048;-73
2022/10/30 03:26:00;;;;;;;;;;;13.10;99.90;;;;;;4882328;29;20083;-73
2022/10/30 03:28:28;;;;;;;2.00;1.50;;;13.40;99.90;;;;;;4901469;29;20363;-74
2022/10/30 03:31:02;;;;;;;1.58;1.27;;;12.90;99.90;;;;;;4897327;29;20126;-73
2022/10/30 03:33:28;;;;;;;2.05;1.30;;;12.90;99.90;;;;;;4895372;29;20047;-74
2022/10/30 03:35:54;;;;;;;1.85;1.40;;;12.80;99.90;;;;;;4899370;29;20399;-74
2022/10/30 03:38:20;;;;;;;;;;;12.80;99.90;;;;;;4898397;29;20155;-73
2022/10/30 03:40:46;;;;;;;2.13;1.60;;;12.80;99.90;;;;;;4898081;29;20001;-74
2022/10/30 03:43:12;;;;;;;1.77;1.55;;;12.70;99.90;;;;;;4898067;29;20043;-73
2022/10/30 03:45:37;;;;;;;2.03;1.40;;;12.90;99.90;;;;;;4867588;29;20051;-74
2022/10/30 03:48:04;;;;;;;2.20;1.10;;;13.10;99.90;;;;;;4897657;29;20056;-74
2022/10/30 03:50:31;;;;;;;1.30;1.08;;;12.90;99.90;;;;;;4898616;29;20559;-75
2022/10/30 03:52:57;;;;;;;;;;;12.90;99.90;;;;;;4898491;29;20061;-75
2022/10/30 03:55:23;;;;;;;2.13;1.60;;;12.90;99.90;;;;;;4908877;29;19923;-75
2022/10/30 03:57:49;;;;;;;2.78;1.80;;;13.10;99.90;;;;;;4897818;29;20051;-74
2022/10/30 04:00:15;;;;;;;2.97;1.70;;;13.20;99.90;;;;;;4896841;29;20130;-75
2022/10/30 04:02:49;;;;;;;1.90;1.65;;;13.00;99.90;;;;;;4899988;29;20056;-82
2022/10/30 04:05:17;;;;;;;1.75;1.45;;;12.70;99.90;;;;;;4882534;29;20365;-81
2022/10/30 04:07:43;;;;;;;2.58;1.70;;;12.70;99.90;;;;;;4897450;29;20056;-81
2022/10/30 04:10:10;;;;;;;2.20;1.58;;;12.80;99.90;;;;;;4898373;29;20051;-81
2022/10/30 04:12:36;;;;;;;3.40;2.30;;;12.70;99.90;;;;;;4882905;29;20397;-82
2022/10/30 04:15:02;;;;;;;3.55;1.80;;;12.70;99.90;;;;;;4915389;29;20047;-82
2022/10/30 04:17:28;;;;;;;2.03;1.70;;;12.80;99.90;;;;;;4897554;29;20559;-82
2022/10/30 04:19:54;;;;;;;1.88;1.50;;;12.70;99.90;;;;;;4898230;29;20051;-82
2022/10/30 04:22:19;;;;;;;2.25;1.73;;;13.20;99.90;;;;;;4898499;29;20040;-82
2022/10/30 04:24:47;;;;;;;2.33;1.60;;;13.20;99.90;;;;;;4918097;29;20106;-82
2022/10/30 04:27:14;;;;;;;1.58;1.30;;;12.70;99.90;;;;;;4883923;29;20096;-82
2022/10/30 04:29:41;;;;;;;1.80;1.35;;;12.90;99.90;;;;;;4894489;29;20397;-82
2022/10/30 04:32:07;;;;;;;4.10;1.98;;;12.90;99.90;;;;;;4894557;29;20127;-82
2022/10/30 04:34:33;;;;;;;3.80;1.77;;;12.70;99.90;;;;;;4893751;29;20048;-82
2022/10/30 04:36:59;;;;;;;;;;;13.20;99.90;;;;;;4894834;29;20113;-82
2022/10/30 04:39:25;;;;;;;2.83;1.80;;;12.80;99.90;;;;;;4893868;29;19924;-82
2022/10/30 04:41:50;;;;;;;3.33;1.90;;;13.00;99.90;;;;;;4878105;29;20127;-82
2022/10/30 04:44:16;;;;;;;2.67;1.80;;;12.80;99.90;;;;;;4879108;29;20052;-81
2022/10/30 04:46:42;;;;;;;2.55;1.90;;;12.90;99.90;;;;;;4894014;29;20107;-82
2022/10/30 04:49:08;;;;;;;2.35;1.70;;;13.30;99.90;;;;;;4891571;29;20124;-74
2022/10/30 04:51:34;;;;;;;2.15;1.55;;;12.80;99.90;;;;;;4878118;29;20040;-73
2022/10/30 04:53:59;;;;;;;2.55;1.60;;;13.20;99.90;;;;;;4893825;29;20099;-74
2022/10/30 04:56:25;;;;;;;2.25;1.35;;;13.10;99.90;;;;;;4893426;29;20532;-73
2022/10/30 04:58:52;;;;;;;1.52;1.23;;;12.70;99.90;;;;;;4892520;29;20461;-74
2022/10/30 05:01:18;;;;;;;2.28;1.38;;;12.60;99.90;;;;;;4892864;29;20202;-74
2022/10/30 05:03:43;;;;;;;1.58;1.20;;;12.60;99.90;;;;;;4894397;29;20179;-74
2022/10/30 05:06:26;;;;;;;2.25;1.55;;;12.60;99.90;;;;;;4892460;29;20143;-74
2022/10/30 05:08:51;;;;;;;2.22;1.80;;;12.60;99.90;;;;;;4877300;29;20698;-74
2022/10/30 05:11:17;;;;;;;2.92;1.80;;;12.90;99.90;;;;;;4892560;29;20089;-74
2022/10/30 05:13:43;;;;;;;2.53;1.60;;;13.10;99.90;;;;;;4891154;29;20052;-74
2022/10/30 05:16:09;;;;;;;2.13;1.50;;;13.10;99.90;;;;;;4889592;29;20346;-74
2022/10/30 05:18:34;;;;;;;3.17;1.77;;;13.10;99.90;;;;;;4888272;29;20044;-73
2022/10/30 05:21:00;;;;;;;1.60;1.30;;;12.60;99.90;;;;;;4868815;29;20069;-73
2022/10/30 05:23:26;;;;;;;1.95;1.30;;;12.80;99.90;;;;;;4889716;29;20049;-74
2022/10/30 05:25:52;;;;;;;2.08;1.50;;;12.60;99.90;;;;;;4872064;29;20052;-74
2022/10/30 05:28:17;;;;;;;1.52;1.17;;;13.00;99.90;;;;;;4895590;29;20497;-74
2022/10/30 05:30:43;;;;;;;2.15;1.30;;;13.10;99.90;;;;;;4912876;29;20036;-74
2022/10/30 05:33:11;;;;;;;1.60;1.40;;;12.70;99.90;;;;;;4894557;29;20080;-74
2022/10/30 05:35:37;;;;;;;1.50;1.20;;;12.80;99.90;;;;;;4913540;29;20571;-73
2022/10/30 05:38:05;;;;;;;2.30;1.67;;;12.60;99.90;;;;;;4901782;29;20131;-73
2022/10/30 05:40:32;;;;;;;1.80;1.20;;;12.60;99.90;;;;;;4900876;29;20058;-73
2022/10/30 05:42:58;;;;;;;2.10;1.30;;;12.70;99.90;;;;;;4899841;29;20090;-73
2022/10/30 05:45:24;;;;;;;1.50;1.10;;;12.70;99.90;;;;;;4903643;29;20044;-72
2022/10/30 05:47:55;;;;;;;2.05;1.40;;;12.80;99.90;;;;;;4881591;29;20084;-72
2022/10/30 05:50:20;;;;;;;2.20;1.38;;;12.70;99.90;;;;;;4893094;29;20091;-72
2022/10/30 05:52:46;;;;;;;1.20;1.00;;;12.80;99.90;;;;;;4898911;29;20051;-72
2022/10/30 05:55:11;;;;;;;1.80;1.23;;;12.80;99.90;;;;;;4900627;29;20039;-72
2022/10/30 05:57:37;;;;;;;1.92;1.25;;;12.20;99.90;;;;;;4900110;29;20088;-73
2022/10/30 06:00:04;;;;;;;2.22;1.52;;;12.30;99.90;;;;;;4880456;29;20044;-73
2022/10/30 06:02:30;;;;;;;2.75;1.42;;;12.20;99.90;;;;;;4900280;29;20044;-73
2022/10/30 06:04:55;;;;;;;2.88;1.63;;;12.70;99.90;;;;;;4890453;29;20040;-73
2022/10/30 06:07:21;;;;;;;2.92;1.83;;;12.70;99.90;;;;;;4899659;29;20043;-73
2022/10/30 06:09:46;;;;;;;2.35;1.60;;;12.70;99.90;;;;;;4900335;29;20048;-73
2022/10/30 06:12:12;;;;;;;4.38;1.70;;;12.40;99.90;;;;;;4897952;29;20062;-72
2022/10/30 06:14:38;;;;;;;2.45;1.60;;;12.10;99.90;;;;;;4915933;29;20055;-72
2022/10/30 06:17:03;;;;;;;2.28;1.67;;;12.60;99.90;;;;;;4899980;29;20820;-73
2022/10/30 06:19:29;;;;;;;3.17;1.98;;;12.10;99.90;;;;;;4899997;29;20585;-73
2022/10/30 06:21:55;;;;;;;2.65;1.95;;;12.30;99.90;;;;;;4896853;29;20048;-73
2022/10/30 06:24:20;;;;;;;3.00;1.83;;;12.00;99.90;;;;;;4898992;29;20127;-74
2022/10/30 06:26:46;;;;;;;3.25;1.60;;;12.00;99.90;;;;;;4897678;29;20111;-74
2022/10/30 06:29:12;;;;;;;2.47;1.55;;;12.30;99.90;;;;;;4915704;29;20048;-74
2022/10/30 06:31:37;;;;;;;2.75;1.90;;;12.10;99.90;;;;;;4881384;29;20047;-73
2022/10/30 06:34:04;;;;;;;2.60;1.70;;;12.50;99.90;;;;;;4886567;29;20055;-72
2022/10/30 06:36:30;;;;;;;1.88;1.50;;;12.50;99.90;;;;;;4898929;29;20073;-73
2022/10/30 06:38:55;;;;;;;2.45;1.60;;;12.00;99.90;;;;;;4895213;29;20486;-73
2022/10/30 06:41:21;;;;;;;2.33;1.50;;;12.10;99.90;;;;;;4901385;29;20066;-73
2022/10/30 06:43:47;;;;;;;2.80;1.80;;;12.00;99.90;;;;;;4898118;29;20059;-74
2022/10/30 06:46:12;;;;;;;2.72;1.80;;;12.50;99.90;;;;;;4917144;29;20051;-73
2022/10/30 06:48:38;;;;;;;1.67;1.40;;;12.30;99.90;;;;;;4915652;29;20048;-73
2022/10/30 06:51:04;;;;;;;3.28;1.80;;;12.00;99.90;;;;;;4895394;29;20071;-74
2022/10/30 06:53:30;;;;;;;2.13;1.60;;;12.60;99.90;;;;;;4895906;29;20381;-74
2022/10/30 06:56:00;;;;;;;2.80;1.98;;;12.40;99.90;;;;;;4913286;29;20044;-74
2022/10/30 06:58:27;;;;;;;2.17;1.60;;;11.90;99.90;;;;;;4915830;29;20051;-75
2022/10/30 07:00:53;;;;;;;1.88;1.48;;;12.60;99.90;;;;;;4899741;29;20056;-73
2022/10/30 07:03:19;;;;;;;2.03;1.50;;;12.00;99.90;;;;;;4917716;29;20046;-74
2022/10/30 07:05:45;;;;;;;;;;;12.60;99.90;;;;;;4900842;29;20077;-73
2022/10/30 07:08:11;;;;;;;2.40;1.52;;;12.50;99.90;;;;;;4899852;29;19966;-74
2022/10/30 07:10:37;;;;;;;2.95;1.50;;;12.60;99.90;;;;;;4899316;29;20040;-74
2022/10/30 07:13:02;;;;;;;2.10;1.60;;;12.60;99.90;;;;;;4899527;29;20044;-74
2022/10/30 07:15:28;;;;;;;2.53;1.83;;;12.00;99.90;;;;;;4899850;29;20076;-74
2022/10/30 07:17:56;;;;;;;2.08;1.60;;;12.00;99.90;;;;;;4899916;29;20052;-73
2022/10/30 07:20:22;;;;;;;2.72;1.88;;;12.70;99.90;;;;;;4899933;29;20059;-74
2022/10/30 07:22:48;;;;;;;4.38;1.98;;;12.20;99.90;;;;;;4898365;29;20052;-74
2022/10/30 07:25:14;;;;;;;2.55;2.00;;;12.10;99.90;;;;;;4898806;29;20127;-73
2022/10/30 07:27:48;;;;;;;3.28;2.20;;;12.60;99.90;;;;;;4895546;29;20092;-73
2022/10/30 07:30:19;;;;;;;3.60;2.10;;;12.20;99.90;;;;;;4895175;29;20120;-72
2022/10/30 07:32:45;;;;;;;3.53;2.25;;;12.70;99.90;;;;;;4895383;29;20548;-72
2022/10/30 07:35:13;;;;;;;3.55;1.98;;;12.20;99.90;;;;;;4895630;29;20088;-74
2022/10/30 07:37:39;;;;;;;2.75;1.95;;;12.90;99.90;;;;;;4894986;29;20406;-72
2022/10/30 07:40:06;;;;;;;3.83;2.35;;;12.90;99.90;;;;;;4897200;29;20119;-73
2022/10/30 07:42:32;;;;;;;3.08;2.20;;;13.00;99.90;;;;;;4894163;29;20128;-74
2022/10/30 07:44:58;;;;;;;2.63;1.90;;;12.30;99.90;;;;;;4894120;29;20108;-73
2022/10/30 07:47:24;;;;;;;2.05;1.60;;;12.30;99.90;;;;;;4895034;29;20045;-73
2022/10/30 07:49:50;;;;;;;2.30;1.52;;;13.00;99.90;;;;;;4893105;29;20108;-74
2022/10/30 07:52:15;;;;;;;2.78;1.65;;;12.50;99.90;;;;;;4908363;29;20126;-74
2022/10/30 07:54:41;;;;;;;2.03;1.40;;;13.10;99.90;;;;;;4888288;29;20533;-73
2022/10/30 07:57:07;;;;;;;1.55;1.42;;;13.10;99.90;;;;;;4888758;29;20048;-72
2022/10/30 07:59:32;;;;;;;2.42;1.88;;;12.90;99.90;;;;;;4878066;29;21666;-72
2022/10/30 08:01:59;;;;;;;2.15;1.50;;;13.00;99.90;;;;;;4894723;29;20055;-74
2022/10/30 08:04:25;;;;;;;3.30;1.92;;;13.20;99.90;;;;;;4892901;29;20059;-73
2022/10/30 08:06:52;;;;;;;3.85;2.17;;;13.20;99.90;;;;;;4894300;29;20040;-73
2022/10/30 08:09:17;;;;;;;3.92;1.85;;;13.00;99.90;;;;;;4870093;29;20044;-74
2022/10/30 08:11:43;;;;;;;2.10;1.60;;;12.90;99.90;;;;;;4889341;29;20052;-73
2022/10/30 08:14:09;;;;;;;2.17;1.60;;;13.40;99.90;;;;;;4873678;29;20148;-73
2022/10/30 08:16:34;;;;;;;2.95;1.60;;;12.90;99.90;;;;;;4888239;29;20044;-74
2022/10/30 08:19:00;;;;;;;2.25;1.60;;;13.60;99.90;;;;;;4891680;29;20045;-73
2022/10/30 08:21:26;;;;;;;2.05;1.50;;;13.10;99.90;;;;;;4907191;29;20055;-73
2022/10/30 08:23:51;;;;;;;2.10;1.70;;;13.60;99.90;;;;;;4889419;29;20041;-74
2022/10/30 08:26:17;;;;;;;3.08;1.88;;;13.40;99.90;;;;;;4878796;29;20052;-72
2022/10/30 08:28:43;;;;;;;2.47;1.90;;;13.70;99.90;;;;;;4908737;29;20111;-73
2022/10/30 08:31:09;;;;;;;4.13;1.85;;;13.40;99.90;;;;;;4893369;29;20040;-73
2022/10/30 08:33:34;;;;;;;1.83;1.63;;;13.90;99.90;;;;;;4894412;29;20396;-73
2022/10/30 08:36:01;;;;;;;2.67;1.70;;;13.50;99.90;;;;;;4894098;29;20055;-73
2022/10/30 08:38:27;;;;;;;;;;;14.10;99.90;;;;;;4895292;29;20824;-73
2022/10/30 08:40:53;;;;;;;2.33;1.90;;;13.50;99.90;;;;;;4893179;29;19946;-73
2022/10/30 08:43:19;;;;;;;;;;;13.60;99.90;;;;;;4896393;29;20072;-73
2022/10/30 08:45:45;;;;;;;3.90;2.60;;;13.90;99.90;;;;;;4873614;29;19923;-74
2022/10/30 08:48:13;;;;;;;2.92;2.15;;;14.20;99.90;;;;;;4889770;29;20053;-73
2022/10/30 08:50:39;;;;;;;2.78;2.08;;;13.80;99.90;;;;;;4878073;29;20510;-73
2022/10/30 08:53:07;;;;;;;2.15;1.80;;;14.50;99.90;;;;;;4894009;29;20048;-73
2022/10/30 08:55:34;;;;;;;2.63;1.70;;;14.60;99.90;;;;;;4894780;29;20111;-72
2022/10/30 08:58:00;;;;;;;2.58;1.90;;;14.60;99.90;;;;;;4895719;29;20067;-73
2022/10/30 09:00:27;;;;;;;3.92;1.77;;;14.70;99.90;;;;;;4904525;29;21388;-73
2022/10/30 09:02:53;;;;;;;2.30;1.60;;;14.60;99.90;;;;;;4907217;29;20094;-71
2022/10/30 09:05:19;;;;;;;;;;;14.40;99.90;;;;;;4896147;29;20044;-74
2022/10/30 09:07:45;;;;;;;3.65;2.28;;;15.00;99.90;;;;;;4910994;29;19919;-74
2022/10/30 09:10:11;;;;;;;6.05;3.75;;;14.90;99.90;;;;;;4897419;29;20500;-72
2022/10/30 09:12:37;;;;;;;;;;;15.10;99.90;;;;;;4894898;29;20067;-73
2022/10/30 09:15:03;;;;;;;4.68;3.00;;;15.20;99.90;;;;;;4913189;29;20350;-73
2022/10/30 09:17:29;;;;;;;5.30;3.10;;;14.70;99.90;;;;;;4903262;29;20107;-73
2022/10/30 09:19:55;;;;;;;3.40;2.63;;;15.30;99.90;;;;;;4898491;29;20051;-72
2022/10/30 09:22:20;;;;;;;5.07;2.90;;;14.90;99.90;;;;;;4900359;29;20079;-72
2022/10/30 09:24:46;;;;;;;4.28;3.30;;;15.00;99.90;;;;;;4900322;29;20123;-73
2022/10/30 09:27:12;;;;;;;3.55;2.40;;;15.50;99.90;;;;;;4882908;29;20060;-73
2022/10/30 09:29:38;;;;;;;4.85;2.83;;;15.10;99.90;;;;;;4884132;29;20059;-72
2022/10/30 09:32:08;;;;;;;4.85;2.90;;;15.30;99.90;;;;;;4914111;29;20556;-73
2022/10/30 09:34:35;;;;;;;4.68;2.90;;;15.40;99.90;;;;;;4913347;29;20088;-74
2022/10/30 09:37:01;;;;;;;3.20;2.60;;;15.90;99.90;;;;;;4897485;29;20048;-74
2022/10/30 09:39:29;;;;;;;3.05;2.42;;;16.00;99.90;;;;;;4898448;29;20044;-74
2022/10/30 09:42:19;;;;;;;3.40;2.35;;;16.10;99.90;;;;;;4898474;29;20056;-74
2022/10/30 09:45:06;;;;;;;4.22;2.38;;;16.20;99.90;;;;;;4915670;29;20052;-74
2022/10/30 09:47:37;;;;;;;5.70;3.03;;;16.30;99.90;;;;;;4880517;29;20472;-73
2022/10/30 09:50:22;;;;;;;4.15;2.50;;;16.40;99.90;;;;;;4895373;29;20048;-73
2022/10/30 09:53:12;;;;;;;8.30;4.55;;;16.60;99.90;;;;;;4898784;29;20043;-74
2022/10/30 09:55:54;;;;;;;4.93;3.10;;;16.40;99.90;;;;;;4914592;29;20480;-72
2022/10/30 09:58:35;;;;;;;4.38;3.00;;;16.80;99.90;;;;;;4885171;29;20138;-74
2022/10/30 10:01:14;;;;;;;6.68;3.47;;;16.70;99.90;;;;;;4915382;29;20044;-73
2022/10/30 10:04:17;;;;;;;4.25;2.65;;;16.70;99.90;;;;;;4883123;29;20084;-73
2022/10/30 10:06:46;;;;;;;2.97;2.20;;;17.10;99.90;;;;;;4915300;29;20111;-73
2022/10/30 10:09:18;;;;;;;5.38;3.00;;;17.20;99.90;;;;;;4918275;29;20100;-72
2022/10/30 10:12:05;;;;;;;4.15;2.92;;;17.00;99.90;;;;;;4914409;29;20047;-72
2022/10/30 10:14:44;;;;;;;3.00;2.25;;;17.30;99.90;;;;;;4913587;29;20044;-72
2022/10/30 10:17:14;;;;;;;3.75;2.10;;;17.20;99.90;;;;;;4912360;29;20052;-72
2022/10/30 10:19:58;;;;;;;2.92;1.92;;;17.30;99.90;;;;;;4883091;29;20052;-72
2022/10/30 10:22:46;;;;;;;3.58;2.50;;;17.60;99.90;;;;;;4899179;29;20047;-73
2022/10/30 10:25:15;;;;;;;2.53;1.98;;;17.60;99.90;;;;;;4914266;29;20044;-74
2022/10/30 10:28:06;;;;;;;2.40;2.00;;;17.90;99.90;;;;;;4903759;29;20066;-74
2022/10/30 10:31:06;;;;;;;7.97;4.00;;;18.00;99.90;;;;;;4880855;29;20066;-73
2022/10/30 10:33:55;;;;;;;4.80;2.50;;;18.10;99.90;;;;;;4875415;29;20071;-72
2022/10/30 10:36:39;;;;;;;3.42;2.42;;;18.10;99.90;;;;;;4912688;29;20052;-73
2022/10/30 10:39:46;;;;;;;1.98;1.70;;;18.20;99.90;;;;;;4889881;29;20050;-73
2022/10/30 10:42:43;;;;;;;2.80;1.90;;;18.40;99.90;;;;;;4869299;29;20508;-73
2022/10/30 10:45:23;;;;;;;;;;;18.70;99.90;;;;;;4896914;29;20050;-73
2022/10/30 10:48:03;;;;;;;4.97;2.83;;;19.00;99.90;;;;;;4877115;29;20401;-73
2022/10/30 10:50:55;;;;;;;4.25;2.40;;;19.20;99.90;;;;;;4879834;29;20050;-73
2022/10/30 10:53:37;;;;;;;3.33;2.45;;;19.40;99.90;;;;;;4898895;29;20132;-74
2022/10/30 10:56:03;;;;;;;5.03;3.17;;;19.70;99.90;;;;;;4906248;29;20135;-73
2022/10/30 10:58:48;;;;;;;;;;;19.80;99.90;;;;;;4897442;29;20091;-74
2022/10/30 11:01:20;;;;;;;4.22;1.90;;;19.70;99.90;;;;;;4912076;29;19974;-82
2022/10/30 11:03:55;;;;;;;5.55;3.22;;;19.90;99.90;;;;;;4914466;29;20138;-82
2022/10/30 11:06:26;;;;;;;4.90;2.28;;;20.00;99.90;;;;;;4882678;29;20484;-81
2022/10/30 11:09:00;;;;;;;3.45;2.10;;;20.20;99.90;;;;;;4900162;29;20134;-79
2022/10/30 11:11:26;;;;;;;2.65;1.95;;;20.50;99.90;;;;;;4903207;29;20044;-79
2022/10/30 11:13:53;;;;;;;3.30;1.95;;;20.70;99.90;;;;;;4889547;29;20441;-79
2022/10/30 11:16:41;;;;;;;2.97;1.98;;;20.60;99.90;;;;;;4889359;29;20392;-80
2022/10/30 11:19:08;;;;;;;2.90;1.92;;;20.70;99.90;;;;;;4890405;29;20044;-79
2022/10/30 11:21:47;;;;;;;3.97;2.28;;;20.90;99.90;;;;;;4901630;29;20063;-74
2022/10/30 11:24:33;;;;;;;6.05;3.05;;;20.90;99.90;;;;;;4900392;29;20052;-74
2022/10/30 11:27:24;;;;;;;5.00;2.40;;;20.90;99.90;;;;;;4898918;29;20063;-73
2022/10/30 11:30:03;;;;;;;6.70;2.83;;;21.10;99.90;;;;;;4886350;29;20378;-77
2022/10/30 11:32:32;;;;;;;6.75;2.40;;;21.20;99.90;;;;;;4912317;29;20043;-75
2022/10/30 11:35:08;;;;;;;4.45;2.30;;;21.40;99.90;;;;;;4896217;29;20076;-75
2022/10/30 11:37:39;;;;;;;3.47;2.03;;;21.40;99.90;;;;;;4888907;29;20594;-74
2022/10/30 11:40:07;;;;;;;3.28;2.00;;;21.50;99.90;;;;;;4901055;29;20040;-74
2022/10/30 11:42:34;;;;;;;3.70;1.95;;;21.60;99.90;;;;;;4906389;29;20130;-74
2022/10/30 11:44:59;;;;;;;3.95;2.08;;;21.60;99.90;;;;;;4880735;29;20048;-74
2022/10/30 11:47:35;;;;;;;5.13;2.85;;;21.60;99.90;;;;;;4894408;29;20040;-74
2022/10/30 11:50:05;;;;;;;3.42;2.20;;;21.70;99.90;;;;;;4912360;29;20370;-73
2022/10/30 11:52:38;;;;;;;3.60;2.17;;;21.70;99.90;;;;;;4896615;29;20115;-73
2022/10/30 11:55:37;;;;;;;3.55;1.95;;;21.60;99.90;;;;;;4897817;29;20044;-74
2022/10/30 11:58:07;;;;;;;3.80;2.20;;;21.30;99.90;;;;;;4857395;29;20079;-75
2022/10/30 12:00:36;;;;;;;2.63;1.80;;;21.00;99.90;;;;;;4898427;29;20043;-74
2022/10/30 12:03:02;;;;;;;2.97;1.75;;;21.00;99.90;;;;;;4897886;29;20127;-73
2022/10/30 12:05:34;;;;;;;3.10;1.65;;;21.00;99.90;;;;;;4895430;29;20076;-74
2022/10/30 12:08:05;;;;;;;3.20;1.80;;;21.00;99.90;;;;;;4891700;29;20067;-74
2022/10/30 12:10:36;;;;;;;2.47;1.60;;;20.90;99.90;;;;;;4890337;29;20123;-75
2022/10/30 12:13:11;;;;;;;2.03;1.30;;;20.80;99.90;;;;;;4909088;29;20044;-74
2022/10/30 12:15:37;;;;;;;2.88;1.45;;;20.80;99.90;;;;;;4898405;29;20055;-75
2022/10/30 12:18:06;;;;;;;1.98;1.45;;;20.70;99.90;;;;;;4897130;29;20052;-75
2022/10/30 12:20:35;;;;;;;1.58;1.00;;;20.70;99.90;;;;;;4894734;29;20044;-75
2022/10/30 12:23:15;;;;;;;2.58;1.65;;;20.70;99.90;;;;;;4895914;29;20520;-75
2022/10/30 12:25:46;;;;;;;2.63;1.42;;;20.80;99.90;;;;;;4892397;29;20067;-74
2022/10/30 12:28:15;;;;;;;2.55;1.60;;;20.90;99.90;;;;;;4845759;29;20163;-74
2022/10/30 12:31:10;;;;;;;2.20;1.80;;;21.10;99.90;;;;;;4878883;29;20040;-74
2022/10/30 12:33:49;;;;;;;2.65;1.70;;;21.40;99.90;;;;;;4888516;29;20469;-75
2022/10/30 12:36:26;;;;;;;1.92;1.70;;;21.30;99.90;;;;;;4859984;29;20566;-74
2022/10/30 12:38:58;;;;;;;2.55;1.67;;;21.30;99.90;;;;;;4874741;29;20148;-79
2022/10/30 12:41:26;;;;;;;3.17;1.60;;;21.20;99.90;;;;;;4889027;29;20522;-75
2022/10/30 12:44:15;;;;;;;3.08;1.75;;;21.10;99.90;;;;;;4886407;29;20393;-77
2022/10/30 12:46:58;;;;;;;2.17;1.50;;;20.90;99.90;;;;;;4891199;29;20481;-77
2022/10/30 12:49:38;;;;;;;1.50;1.20;;;20.80;99.90;;;;;;4874747;29;20075;-75
2022/10/30 12:52:16;;;;;;;1.80;1.30;;;20.70;99.90;;;;;;4857339;29;20045;-75
2022/10/30 12:55:04;;;;;;;1.48;1.10;;;20.60;99.90;;;;;;4882936;29;20036;-75
2022/10/30 12:57:36;;;;;;;2.45;1.30;;;20.50;99.90;;;;;;4897053;29;20036;-75
2022/10/30 13:00:12;;;;;;;2.55;1.50;;;20.50;99.90;;;;;;4874679;29;20067;-76
2022/10/30 13:02:47;;;;;;;;;;;20.50;99.90;;;;;;4879154;29;20089;-76
2022/10/30 13:05:40;;;;;;;2.33;1.40;;;20.60;99.90;;;;;;4893739;29;20457;-76